KBGE/BGE METAR and TAF weather

Enter ICAO airport designator
Station Type Date Time Source
KBGE METAR 2019/10/16 19:15 UTC NOAA

KBGE 161915Z AUTO 30009KT 10SM SCT021 SCT026 25/21 A2985 RMK AO2 T02540206


Station Type Date Time Source
KBGE Decoded METAR 2019/10/16 19:15 UTC NOAA

Bainbridge, Decatur County Industrial Air Park Airport, GA, United States (KBGE) 30-58N 084-38W
Oct 16, 2019 - 03:15 PM EDT / 2019.10.16 1915 UTC
Wind: from the WNW (300 degrees) at 10 MPH (9 KT):0
Visibility: 10 mile(s):0
Sky conditions: partly cloudy
Temperature: 77.7 F (25.4 C)
Dew Point: 69.1 F (20.6 C)
Relative Humidity: 74%
Pressure (altimeter): 29.85 in. Hg (1010 hPa)
ob: KBGE 161915Z AUTO 30009KT 10SM SCT021 SCT026 25/21 A2985 RMK AO2 T02540206
cycle: 19

Station Type Date Time Source
KBGE TAF UTC NOAA

Error!

Example: see airport list